Bookmark and Share
Track history (hours):
 

Haina

Last reported at 2012-Jun-18 18:24 UTC. Time now 2014-Apr-24 09:29 UTC.
Position S 33°18' E 017°30'.
Warning: this ship's position is years out of date!

Length 282 m; draft 11.1 m.

Type: Cargo ship. MMSI: 477835700.

NotesDate/timePositionNaut miles runAvg speedWind from/ knotsBaromVisibWave heightAir tempDewpointWater temp
2012-Jun-18 18:24S 33°18' E 017°30'2910.2
2012-Jun-18 15:33S 33°39' E 017°54'1010.1
2012-Jun-18 14:33S 33°45' E 018°04'1010.3
2012-Jun-18 13:33S 33°51' E 018°14'9 9.0
2012-Jun-18 12:33S 33°51' E 018°25'3 3.2
2012-Jun-18 11:33S 33°55' E 018°26'0 0.1
2012-Jun-18 10:34S 33°55' E 018°26'0 0.0
2012-Jun-18 09:25S 33°55' E 018°26'0 0.0
2012-Jun-18 08:28S 33°55' E 018°26'0 0.0
2012-Jun-18 06:25S 33°55' E 018°26'0 0.0
2012-Jun-18 05:31S 33°55' E 018°26'0 0.0
2012-Jun-18 04:34S 33°55' E 018°26'0 0.0
2012-Jun-18 02:31S 33°55' E 018°26'2 1.6
2012-Jun-18 01:33S 33°53' E 018°26'6 5.7
2012-Jun-18 00:33S 33°52' E 018°19'5 5.4
2012-Jun-17 23:33S 33°51' E 018°13'0 0.5
2012-Jun-17 22:33S 33°51' E 018°13'3 2.7
2012-Jun-17 21:33S 33°53' E 018°16'1 1.3
2012-Jun-17 20:33S 33°52' E 018°17'1 0.7
2012-Jun-17 19:32S 33°52' E 018°16'1 0.9
2012-Jun-17 18:33S 33°51' E 018°15'4 4.1
2012-Jun-17 17:33S 33°53' E 018°20'9 9.4
2012-Jun-17 16:33S 34°02' E 018°14'10 9.9
2012-Jun-17 15:31S 34°12' E 018°16'  
2012-Jun-14 20:32S 30°23' E 031°01'1212.8
2012-Jun-14 19:33S 30°13' E 031°09'1211.9
2012-Jun-14 18:33S 30°03' E 031°17'1211.6
2012-Jun-14 17:33S 29°53' E 031°25'1111.5
2012-Jun-14 16:33S 29°44' E 031°32'1110.7
2012-Jun-14 15:33S 29°35' E 031°40'1010.3
2012-Jun-14 14:33S 29°27' E 031°46'1110.6
2012-Jun-14 13:33S 29°18' E 031°53'27 0.6
2012-Jun-12 13:31S 28°54' E 032°06'0 0.0
2012-Jun-12 12:31S 28°54' E 032°06'0 0.0
2012-Jun-12 10:31S 28°54' E 032°06'0 0.0
2012-Jun-12 09:28S 28°54' E 032°06'0 0.1
2012-Jun-12 08:31S 28°54' E 032°06'0 0.0
2012-Jun-12 07:28S 28°54' E 032°06'0 0.1
2012-Jun-12 06:31S 28°54' E 032°06'0 0.0
2012-Jun-12 05:25S 28°54' E 032°06'0 0.1
2012-Jun-12 04:34S 28°54' E 032°06'0 0.1
2012-Jun-12 03:31S 28°54' E 032°06'0 0.1
2012-Jun-12 02:31S 28°54' E 032°06'0 0.0
2012-Jun-12 01:31S 28°54' E 032°06'0 0.0
2012-Jun-12 00:31S 28°54' E 032°06'0 0.0
2012-Jun-11 23:31S 28°54' E 032°06'0 0.0
2012-Jun-11 22:31S 28°54' E 032°06'0 0.1
2012-Jun-11 21:31S 28°54' E 032°06'0 0.0
2012-Jun-11 15:28S 28°54' E 032°06'1 0.8
2012-Jun-11 14:36S 28°54' E 032°07'1 4.1
2012-Jun-11 14:28S 28°55' E 032°07'14 7.3
2012-Jun-11 12:32S 29°07' E 031°59'10 9.3
2012-Jun-11 11:30S 29°15' E 031°52'2 1.7
2012-Jun-11 10:33S 29°15' E 031°50'0 0.0
2012-Jun-11 09:27S 29°15' E 031°50'0 0.0
2012-Jun-11 08:27S 29°15' E 031°50'0 0.0
2012-Jun-11 07:33S 29°15' E 031°50'0 0.0
2012-Jun-11 06:33S 29°15' E 031°50'0 0.1
2012-Jun-11 05:33S 29°15' E 031°50'0 0.0
2012-Jun-11 04:36S 29°15' E 031°50'0 0.0
2012-Jun-11 03:33S 29°15' E 031°50'0 0.0
2012-Jun-11 02:33S 29°15' E 031°50'0 0.0
2012-Jun-11 01:30S 29°15' E 031°50'0 0.0
2012-Jun-11 00:33S 29°15' E 031°50'0 0.0
2012-Jun-10 23:33S 29°15' E 031°50'0 0.0
2012-Jun-10 22:33S 29°15' E 031°50'0 0.0
2012-Jun-10 21:33S 29°15' E 031°50'0 0.0
2012-Jun-10 20:24S 29°15' E 031°50'0 0.0
2012-Jun-10 19:33S 29°15' E 031°50'0 0.0
2012-Jun-10 18:27S 29°15' E 031°50'0 0.0
2012-Jun-10 17:33S 29°15' E 031°50'0 0.0
2012-Jun-10 16:30S 29°15' E 031°50'0 0.0
2012-Jun-10 15:33S 29°15' E 031°50'0 0.0
2012-Jun-10 14:33S 29°16' E 031°50'0 0.0
2012-Jun-10 13:33S 29°16' E 031°50'0 0.0
2012-Jun-10 11:33S 29°16' E 031°50'0 0.0
2012-Jun-10 10:33S 29°16' E 031°50'0 0.1
2012-Jun-10 09:33S 29°16' E 031°50'0 0.1
2012-Jun-10 08:33S 29°16' E 031°50'0 0.1
2012-Jun-10 07:30S 29°16' E 031°50'0 0.0
2012-Jun-10 06:33S 29°16' E 031°50'0 0.1
2012-Jun-10 05:27S 29°16' E 031°50'0 0.1
2012-Jun-10 04:33S 29°16' E 031°50'0 0.0
2012-Jun-10 03:30S 29°16' E 031°50'0 0.0
2012-Jun-10 02:33S 29°16' E 031°50'0 0.0
2012-Jun-10 01:30S 29°16' E 031°50'0 0.1
2012-Jun-10 00:33S 29°16' E 031°50'0 0.0
2012-Jun-09 23:30S 29°16' E 031°50'0 0.0
2012-Jun-09 22:30S 29°16' E 031°50'0 0.0
2012-Jun-09 21:33S 29°16' E 031°50'0 0.1
2012-Jun-09 20:33S 29°16' E 031°50'0 0.0
2012-Jun-09 19:33S 29°16' E 031°50'0 0.0
2012-Jun-09 17:33S 29°16' E 031°50'0 0.1
2012-Jun-09 16:27S 29°16' E 031°50'0 0.0
2012-Jun-09 15:33S 29°16' E 031°50'0 0.0
2012-Jun-09 12:33S 29°16' E 031°50'0 0.0
2012-Jun-09 11:33S 29°16' E 031°50'0 0.0
2012-Jun-09 10:30S 29°16' E 031°50'0 0.0
2012-Jun-09 09:33S 29°16' E 031°50'0 0.0
2012-Jun-09 07:30S 29°16' E 031°50'0 0.0
2012-Jun-09 06:27S 29°16' E 031°50'0 0.0
2012-Jun-09 05:33S 29°16' E 031°50'0 0.0
2012-Jun-09 04:27S 29°16' E 031°50'0 0.1
2012-Jun-09 03:30S 29°16' E 031°50'0 0.1
2012-Jun-09 02:30S 29°16' E 031°50'0 0.0
2012-Jun-09 01:33S 29°16' E 031°50'0 0.0
2012-Jun-09 00:33S 29°16' E 031°50'0 0.1
2012-Jun-08 23:30S 29°16' E 031°50'0 0.0
2012-Jun-08 20:33S 29°16' E 031°50'0 0.1
2012-Jun-08 19:33S 29°16' E 031°50'0 0.0
2012-Jun-08 18:30S 29°16' E 031°50'  

Dump ship's entire track history

sailing weather and tide predictions

Haina — VRHF2 — position and weather